sensor_id;sensor_type;location;lat;lon;timestamp;pressure;altitude;pressure_sealevel;temperature;humidity
10064;BME280;5071;52.360;13.134;2022-07-10T00:00:13;101614.06;;;14.48;63.57
10064;BME280;5071;52.360;13.134;2022-07-10T00:05:17;101604.34;;;14.41;63.64
10064;BME280;5071;52.360;13.134;2022-07-10T00:10:21;101613.44;;;14.27;64.94
10064;BME280;5071;52.360;13.134;2022-07-10T00:15:24;101610.75;;;14.30;65.33
10064;BME280;5071;52.360;13.134;2022-07-10T00:20:27;101620.47;;;14.34;64.76
10064;BME280;5071;52.360;13.134;2022-07-10T00:25:29;101620.28;;;14.47;64.61
10064;BME280;5071;52.360;13.134;2022-07-10T00:30:31;101618.56;;;14.44;65.00
10064;BME280;5071;52.360;13.134;2022-07-10T00:35:35;101619.53;;;14.38;65.26
10064;BME280;5071;52.360;13.134;2022-07-10T00:40:37;101610.56;;;14.43;65.54
10064;BME280;5071;52.360;13.134;2022-07-10T00:45:39;101611.41;;;14.45;65.53
10064;BME280;5071;52.360;13.134;2022-07-10T00:50:44;101604.44;;;14.34;65.89
10064;BME280;5071;52.360;13.134;2022-07-10T00:55:47;101598.31;;;14.26;66.13
10064;BME280;5071;52.360;13.134;2022-07-10T01:00:49;101598.38;;;14.23;66.30
10064;BME280;5071;52.360;13.134;2022-07-10T01:05:53;101596.50;;;14.28;66.46
10064;BME280;5071;52.360;13.134;2022-07-10T01:10:55;101592.19;;;14.21;66.52
10064;BME280;5071;52.360;13.134;2022-07-10T01:15:58;101597.44;;;14.26;66.67
10064;BME280;5071;52.360;13.134;2022-07-10T01:21:01;101590.50;;;14.14;66.49
10064;BME280;5071;52.360;13.134;2022-07-10T01:26:04;101585.06;;;14.20;66.47
10064;BME280;5071;52.360;13.134;2022-07-10T01:31:06;101584.22;;;14.15;65.95
10064;BME280;5071;52.360;13.134;2022-07-10T01:36:09;101581.59;;;14.13;66.11
10064;BME280;5071;52.360;13.134;2022-07-10T01:41:11;101576.28;;;14.10;65.98
10064;BME280;5071;52.360;13.134;2022-07-10T01:46:14;101574.59;;;14.06;65.91
10064;BME280;5071;52.360;13.134;2022-07-10T01:51:18;101576.31;;;14.09;65.50
10064;BME280;5071;52.360;13.134;2022-07-10T01:56:20;101569.28;;;14.02;65.77
10064;BME280;5071;52.360;13.134;2022-07-10T02:01:22;101560.41;;;14.01;65.69
10064;BME280;5071;52.360;13.134;2022-07-10T02:06:26;101559.56;;;13.97;65.66
10064;BME280;5071;52.360;13.134;2022-07-10T02:11:28;101552.47;;;13.95;65.85
10064;BME280;5071;52.360;13.134;2022-07-10T02:16:30;101544.59;;;13.87;66.29
10064;BME280;5071;52.360;13.134;2022-07-10T02:21:34;101560.53;;;13.90;66.33
10064;BME280;5071;52.360;13.134;2022-07-10T02:26:36;101550.78;;;13.89;66.89
10064;BME280;5071;52.360;13.134;2022-07-10T02:31:38;101549.97;;;13.83;67.35
10064;BME280;5071;52.360;13.134;2022-07-10T02:36:42;101554.44;;;13.79;67.73
10064;BME280;5071;52.360;13.134;2022-07-10T02:41:44;101559.97;;;13.67;68.13
10064;BME280;5071;52.360;13.134;2022-07-10T02:46:46;101564.28;;;13.74;67.90
10064;BME280;5071;52.360;13.134;2022-07-10T02:51:50;101551.13;;;13.61;68.62
10064;BME280;5071;52.360;13.134;2022-07-10T02:56:52;101560.94;;;13.59;68.64
10064;BME280;5071;52.360;13.134;2022-07-10T03:01:54;101549.41;;;13.57;69.20
10064;BME280;5071;52.360;13.134;2022-07-10T03:06:58;101546.81;;;13.50;69.65
10064;BME280;5071;52.360;13.134;2022-07-10T03:12:00;101546.84;;;13.47;69.63
10064;BME280;5071;52.360;13.134;2022-07-10T03:17:02;101546.81;;;13.50;69.64
10064;BME280;5071;52.360;13.134;2022-07-10T03:22:06;101552.09;;;13.54;69.82
10064;BME280;5071;52.360;13.134;2022-07-10T03:27:09;101538.84;;;13.45;70.23
10064;BME280;5071;52.360;13.134;2022-07-10T03:32:11;101543.22;;;13.52;70.10
10064;BME280;5071;52.360;13.134;2022-07-10T03:37:14;101539.69;;;13.52;69.92
10064;BME280;5071;52.360;13.134;2022-07-10T03:42:17;101543.31;;;13.45;70.81
10064;BME280;5071;52.360;13.134;2022-07-10T03:47:19;101529.19;;;13.36;70.38
10064;BME280;5071;52.360;13.134;2022-07-10T03:52:22;101527.34;;;13.41;70.50
10064;BME280;5071;52.360;13.134;2022-07-10T03:57:24;101527.50;;;13.25;71.38
10064;BME280;5071;52.360;13.134;2022-07-10T04:02:26;101532.88;;;13.20;71.37
10064;BME280;5071;52.360;13.134;2022-07-10T04:07:30;101536.34;;;13.31;71.42
10064;BME280;5071;52.360;13.134;2022-07-10T04:12:32;101535.25;;;13.49;71.11
10064;BME280;5071;52.360;13.134;2022-07-10T04:17:34;101522.75;;;13.53;71.05
10064;BME280;5071;52.360;13.134;2022-07-10T04:22:37;101529.81;;;13.58;70.90
10064;BME280;5071;52.360;13.134;2022-07-10T04:27:40;101527.09;;;13.61;71.56
10064;BME280;5071;52.360;13.134;2022-07-10T04:32:42;101518.16;;;13.66;71.40
10064;BME280;5071;52.360;13.134;2022-07-10T04:37:45;101520.72;;;13.75;71.08
10064;BME280;5071;52.360;13.134;2022-07-10T04:42:47;101518.00;;;13.78;70.95
10064;BME280;5071;52.360;13.134;2022-07-10T04:47:49;101524.81;;;14.00;70.16
10064;BME280;5071;52.360;13.134;2022-07-10T04:52:53;101529.31;;;13.97;70.73
10064;BME280;5071;52.360;13.134;2022-07-10T04:57:55;101527.16;;;14.24;69.73
10064;BME280;5071;52.360;13.134;2022-07-10T05:02:57;101535.31;;;14.11;69.67
10064;BME280;5071;52.360;13.134;2022-07-10T05:08:02;101525.47;;;14.18;69.77
10064;BME280;5071;52.360;13.134;2022-07-10T05:13:04;101526.19;;;14.29;69.75
10064;BME280;5071;52.360;13.134;2022-07-10T05:18:05;101516.06;;;14.50;68.58
10064;BME280;5071;52.360;13.134;2022-07-10T05:23:09;101519.31;;;14.70;68.06
10064;BME280;5071;52.360;13.134;2022-07-10T05:28:11;101524.22;;;14.96;67.64
10064;BME280;5071;52.360;13.134;2022-07-10T05:33:13;101526.94;;;14.93;67.04
10064;BME280;5071;52.360;13.134;2022-07-10T05:38:16;101527.81;;;14.94;67.01
10064;BME280;5071;52.360;13.134;2022-07-10T05:43:18;101518.06;;;14.91;66.87
10064;BME280;5071;52.360;13.134;2022-07-10T05:48:20;101525.66;;;15.14;66.20
10064;BME280;5071;52.360;13.134;2022-07-10T05:53:24;101531.16;;;15.05;66.33
10064;BME280;5071;52.360;13.134;2022-07-10T05:58:26;101519.09;;;14.83;66.76
10064;BME280;5071;52.360;13.134;2022-07-10T06:03:28;101528.22;;;15.21;66.15
10064;BME280;5071;52.360;13.134;2022-07-10T06:08:32;101514.28;;;15.03;66.31
10064;BME280;5071;52.360;13.134;2022-07-10T06:13:34;101521.78;;;15.31;65.95
10064;BME280;5071;52.360;13.134;2022-07-10T06:18:36;101514.94;;;15.16;64.94
10064;BME280;5071;52.360;13.134;2022-07-10T06:23:40;101529.41;;;15.04;65.65
10064;BME280;5071;52.360;13.134;2022-07-10T06:28:43;101532.16;;;15.48;65.27
10064;BME280;5071;52.360;13.134;2022-07-10T06:33:45;101538.03;;;15.65;63.36
10064;BME280;5071;52.360;13.134;2022-07-10T06:38:48;101530.66;;;15.78;62.63
10064;BME280;5071;52.360;13.134;2022-07-10T06:43:50;101531.41;;;15.86;62.33
10064;BME280;5071;52.360;13.134;2022-07-10T06:48:52;101535.84;;;16.26;61.52
10064;BME280;5071;52.360;13.134;2022-07-10T06:53:57;101530.09;;;16.04;61.23
10064;BME280;5071;52.360;13.134;2022-07-10T06:58:59;101544.34;;;16.44;59.19
10064;BME280;5071;52.360;13.134;2022-07-10T07:04:01;101543.06;;;16.23;58.85
10064;BME280;5071;52.360;13.134;2022-07-10T07:09:05;101531.56;;;16.55;56.75
10064;BME280;5071;52.360;13.134;2022-07-10T07:14:08;101517.47;;;17.50;54.34
10064;BME280;5071;52.360;13.134;2022-07-10T07:19:10;101522.47;;;17.62;54.38
10064;BME280;5071;52.360;13.134;2022-07-10T07:24:14;101517.63;;;18.61;51.83
10064;BME280;5071;52.360;13.134;2022-07-10T07:29:17;101509.84;;;17.36;54.41
10064;BME280;5071;52.360;13.134;2022-07-10T07:34:19;101513.81;;;17.21;54.75
10064;BME280;5071;52.360;13.134;2022-07-10T07:39:23;101516.19;;;16.99;57.29
10064;BME280;5071;52.360;13.134;2022-07-10T07:44:25;101521.78;;;16.54;59.06
10064;BME280;5071;52.360;13.134;2022-07-10T07:49:30;101535.41;;;16.45;58.65
10064;BME280;5071;52.360;13.134;2022-07-10T07:54:33;101529.72;;;16.57;57.25
10064;BME280;5071;52.360;13.134;2022-07-10T07:59:35;101532.97;;;16.71;56.05
10064;BME280;5071;52.360;13.134;2022-07-10T08:04:38;101514.84;;;17.48;55.92
10064;BME280;5071;52.360;13.134;2022-07-10T08:09:41;101503.00;;;17.56;54.76
10064;BME280;5071;52.360;13.134;2022-07-10T08:14:44;101517.81;;;18.29;52.45
10064;BME280;5071;52.360;13.134;2022-07-10T08:19:45;101513.28;;;18.57;51.20
10064;BME280;5071;52.360;13.134;2022-07-10T08:24:49;101516.59;;;17.49;53.76
10064;BME280;5071;52.360;13.134;2022-07-10T08:29:52;101524.34;;;17.29;52.88
10064;BME280;5071;52.360;13.134;2022-07-10T08:34:54;101524.22;;;17.32;52.00
10064;BME280;5071;52.360;13.134;2022-07-10T08:39:57;101525.16;;;17.62;52.83
10064;BME280;5071;52.360;13.134;2022-07-10T08:44:59;101523.53;;;16.91;55.16
10064;BME280;5071;52.360;13.134;2022-07-10T08:50:02;101537.94;;;18.43;50.92
10064;BME280;5071;52.360;13.134;2022-07-10T08:55:06;101526.22;;;18.73;49.77
10064;BME280;5071;52.360;13.134;2022-07-10T09:00:09;101531.28;;;17.99;50.21
10064;BME280;5071;52.360;13.134;2022-07-10T09:05:11;101534.38;;;17.54;52.80
10064;BME280;5071;52.360;13.134;2022-07-10T09:10:15;101528.72;;;17.32;54.33
10064;BME280;5071;52.360;13.134;2022-07-10T09:15:18;101528.63;;;17.36;53.57
10064;BME280;5071;52.360;13.134;2022-07-10T09:20:30;101528.69;;;17.33;53.60
10064;BME280;5071;52.360;13.134;2022-07-10T09:25:34;101531.28;;;18.55;51.55
10064;BME280;5071;52.360;13.134;2022-07-10T09:30:37;101528.34;;;19.16;47.89
10064;BME280;5071;52.360;13.134;2022-07-10T09:35:57;101518.81;;;18.81;49.85
10064;BME280;5071;52.360;13.134;2022-07-10T09:41:11;101530.19;;;18.06;52.61
10064;BME280;5071;52.360;13.134;2022-07-10T09:46:13;101537.25;;;17.15;55.13
10064;BME280;5071;52.360;13.134;2022-07-10T09:51:15;101522.66;;;17.25;55.25
10064;BME280;5071;52.360;13.134;2022-07-10T09:56:18;101540.13;;;18.02;52.01
10064;BME280;5071;52.360;13.134;2022-07-10T10:01:21;101524.78;;;18.62;49.99
10064;BME280;5071;52.360;13.134;2022-07-10T10:06:26;101520.69;;;22.46;41.24
10064;BME280;5071;52.360;13.134;2022-07-10T10:11:32;101525.44;;;20.63;44.28
10064;BME280;5071;52.360;13.134;2022-07-10T10:16:35;101540.03;;;19.89;46.09
10064;BME280;5071;52.360;13.134;2022-07-10T10:21:39;101532.63;;;19.22;47.29
10064;BME280;5071;52.360;13.134;2022-07-10T10:26:43;101532.84;;;18.62;49.94
10064;BME280;5071;52.360;13.134;2022-07-10T10:31:46;101532.63;;;18.69;49.13
10064;BME280;5071;52.360;13.134;2022-07-10T10:36:49;101536.44;;;19.40;48.57
10064;BME280;5071;52.360;13.134;2022-07-10T10:41:53;101529.56;;;20.49;44.91
10064;BME280;5071;52.360;13.134;2022-07-10T10:47:03;101529.03;;;21.66;42.34
10064;BME280;5071;52.360;13.134;2022-07-10T10:52:11;101541.16;;;19.58;46.99
10064;BME280;5071;52.360;13.134;2022-07-10T10:57:18;101543.41;;;18.40;50.61
10064;BME280;5071;52.360;13.134;2022-07-10T11:02:25;101540.22;;;18.27;49.91
10064;BME280;5071;52.360;13.134;2022-07-10T11:07:51;101536.56;;;19.12;48.88
10064;BME280;5071;52.360;13.134;2022-07-10T11:13:02;101546.78;;;19.77;47.53
10064;BME280;5071;52.360;13.134;2022-07-10T11:18:05;101540.56;;;20.67;45.79
10064;BME280;5071;52.360;13.134;2022-07-10T11:28:59;101529.81;;;20.43;44.66
10064;BME280;5071;52.360;13.134;2022-07-10T11:34:03;101532.50;;;19.25;47.57
10064;BME280;5071;52.360;13.134;2022-07-10T11:39:06;101534.13;;;19.29;48.21
10064;BME280;5071;52.360;13.134;2022-07-10T11:44:13;101523.53;;;19.75;45.57
10064;BME280;5071;52.360;13.134;2022-07-10T11:49:16;101529.25;;;19.89;44.09
10064;BME280;5071;52.360;13.134;2022-07-10T11:54:18;101537.91;;;19.74;45.60
10064;BME280;5071;52.360;13.134;2022-07-10T11:59:25;101532.31;;;19.04;47.88
10064;BME280;5071;52.360;13.134;2022-07-10T12:04:30;101535.66;;;18.86;47.69
10064;BME280;5071;52.360;13.134;2022-07-10T12:09:32;101542.16;;;19.31;46.72
10064;BME280;5071;52.360;13.134;2022-07-10T12:14:35;101544.34;;;20.17;44.18
10064;BME280;5071;52.360;13.134;2022-07-10T12:19:38;101528.78;;;20.90;44.03
10064;BME280;5071;52.360;13.134;2022-07-10T12:24:41;101526.56;;;21.20;43.27
10064;BME280;5071;52.360;13.134;2022-07-10T12:30:00;101533.97;;;20.52;41.75
10064;BME280;5071;52.360;13.134;2022-07-10T12:35:02;101529.56;;;20.49;41.66
10064;BME280;5071;52.360;13.134;2022-07-10T12:40:05;101517.13;;;20.45;42.59
10064;BME280;5071;52.360;13.134;2022-07-10T12:45:13;101526.63;;;19.88;44.47
10064;BME280;5071;52.360;13.134;2022-07-10T12:50:16;101522.47;;;19.79;44.55
10064;BME280;5071;52.360;13.134;2022-07-10T12:55:20;101533.84;;;20.33;42.68
10064;BME280;5071;52.360;13.134;2022-07-10T13:00:25;101520.59;;;20.71;43.32
10064;BME280;5071;52.360;13.134;2022-07-10T13:05:30;101527.78;;;21.13;42.46
10064;BME280;5071;52.360;13.134;2022-07-10T13:10:32;101530.31;;;22.16;40.56
10064;BME280;5071;52.360;13.134;2022-07-10T13:15:35;101535.28;;;21.06;40.38
10064;BME280;5071;52.360;13.134;2022-07-10T13:20:37;101541.09;;;20.53;42.29
10064;BME280;5071;52.360;13.134;2022-07-10T13:25:39;101544.72;;;20.30;42.33
10064;BME280;5071;52.360;13.134;2022-07-10T13:30:43;101546.25;;;20.59;42.22
10064;BME280;5071;52.360;13.134;2022-07-10T13:35:45;101539.47;;;20.49;40.57
10064;BME280;5071;52.360;13.134;2022-07-10T13:40:47;101536.69;;;21.35;40.53
10064;BME280;5071;52.360;13.134;2022-07-10T13:45:51;101530.56;;;21.71;39.88
10064;BME280;5071;52.360;13.134;2022-07-10T13:50:53;101523.50;;;21.69;41.46
10064;BME280;5071;52.360;13.134;2022-07-10T13:55:55;101514.16;;;21.57;39.92
10064;BME280;5071;52.360;13.134;2022-07-10T14:00:58;101520.88;;;22.43;38.53
10064;BME280;5071;52.360;13.134;2022-07-10T14:06:00;101521.69;;;21.49;40.82
10064;BME280;5071;52.360;13.134;2022-07-10T14:11:03;101516.78;;;22.16;41.02
10064;BME280;5071;52.360;13.134;2022-07-10T14:16:06;101503.94;;;22.21;38.58
10064;BME280;5071;52.360;13.134;2022-07-10T14:21:09;101498.97;;;22.11;37.88
10064;BME280;5071;52.360;13.134;2022-07-10T14:26:12;101502.00;;;21.66;38.87
10064;BME280;5071;52.360;13.134;2022-07-10T14:31:15;101498.56;;;20.59;40.32
10064;BME280;5071;52.360;13.134;2022-07-10T14:36:18;101504.72;;;20.41;41.54
10064;BME280;5071;52.360;13.134;2022-07-10T14:41:19;101487.44;;;20.89;41.44
10064;BME280;5071;52.360;13.134;2022-07-10T14:46:23;101500.03;;;21.69;39.68
10064;BME280;5071;52.360;13.134;2022-07-10T14:51:25;101499.84;;;21.14;40.64
10064;BME280;5071;52.360;13.134;2022-07-10T14:56:28;101496.59;;;20.85;40.55
10064;BME280;5071;52.360;13.134;2022-07-10T15:01:31;101489.84;;;21.16;40.93
10064;BME280;5071;52.360;13.134;2022-07-10T15:06:33;101494.88;;;22.03;38.25
10064;BME280;5071;52.360;13.134;2022-07-10T15:11:35;101489.91;;;21.93;38.87
10064;BME280;5071;52.360;13.134;2022-07-10T15:16:38;101475.91;;;21.66;38.02
10064;BME280;5071;52.360;13.134;2022-07-10T15:21:41;101475.78;;;21.28;40.14
10064;BME280;5071;52.360;13.134;2022-07-10T15:26:43;101484.72;;;20.69;39.90
10064;BME280;5071;52.360;13.134;2022-07-10T15:31:46;101476.25;;;20.78;40.17
10064;BME280;5071;52.360;13.134;2022-07-10T15:36:49;101465.94;;;21.27;41.54
10064;BME280;5071;52.360;13.134;2022-07-10T15:41:51;101465.94;;;21.27;39.13
10064;BME280;5071;52.360;13.134;2022-07-10T15:46:54;101467.44;;;21.34;39.86
10064;BME280;5071;52.360;13.134;2022-07-10T15:51:56;101460.41;;;21.89;37.81
10064;BME280;5071;52.360;13.134;2022-07-10T15:56:58;101453.78;;;22.13;38.04
10064;BME280;5071;52.360;13.134;2022-07-10T16:02:02;101455.84;;;22.08;38.27
10064;BME280;5071;52.360;13.134;2022-07-10T16:07:04;101450.47;;;21.51;38.44
10064;BME280;5071;52.360;13.134;2022-07-10T16:12:07;101453.50;;;21.04;39.42
10064;BME280;5071;52.360;13.134;2022-07-10T16:17:10;101445.63;;;21.58;38.91
10064;BME280;5071;52.360;13.134;2022-07-10T16:22:13;101447.47;;;20.97;38.99
10064;BME280;5071;52.360;13.134;2022-07-10T16:27:15;101448.28;;;21.00;40.09
10064;BME280;5071;52.360;13.134;2022-07-10T16:32:18;101451.25;;;21.14;39.71
10064;BME280;5071;52.360;13.134;2022-07-10T16:37:20;101451.06;;;20.98;38.91
10064;BME280;5071;52.360;13.134;2022-07-10T16:42:22;101447.47;;;21.18;39.64
10064;BME280;5071;52.360;13.134;2022-07-10T16:47:25;101452.34;;;21.10;38.80
10064;BME280;5071;52.360;13.134;2022-07-10T16:52:27;101454.84;;;20.94;37.89
10064;BME280;5071;52.360;13.134;2022-07-10T16:57:29;101459.31;;;20.52;39.76
10064;BME280;5071;52.360;13.134;2022-07-10T17:02:32;101460.72;;;20.18;40.24
10064;BME280;5071;52.360;13.134;2022-07-10T17:07:34;101463.84;;;20.08;41.45
10064;BME280;5071;52.360;13.134;2022-07-10T17:12:37;101471.38;;;19.99;41.92
10064;BME280;5071;52.360;13.134;2022-07-10T17:17:40;101467.91;;;19.96;41.67
10064;BME280;5071;52.360;13.134;2022-07-10T17:22:43;101474.31;;;19.93;41.63
10064;BME280;5071;52.360;13.134;2022-07-10T17:27:44;101476.84;;;19.74;42.28
10064;BME280;5071;52.360;13.134;2022-07-10T17:32:50;101464.13;;;19.78;42.89
10064;BME280;5071;52.360;13.134;2022-07-10T17:37:59;101471.91;;;19.62;43.13
10064;BME280;5071;52.360;13.134;2022-07-10T17:43:06;101476.59;;;19.57;43.70
10064;BME280;5071;52.360;13.134;2022-07-10T17:48:09;101472.72;;;19.40;43.54
10064;BME280;5071;52.360;13.134;2022-07-10T17:53:12;101474.47;;;19.41;44.17
10064;BME280;5071;52.360;13.134;2022-07-10T17:58:13;101474.88;;;19.31;44.42
10064;BME280;5071;52.360;13.134;2022-07-10T18:03:17;101467.09;;;19.23;44.56
10064;BME280;5071;52.360;13.134;2022-07-10T18:08:19;101470.34;;;19.31;44.89
10064;BME280;5071;52.360;13.134;2022-07-10T18:13:21;101476.53;;;19.10;44.92
10064;BME280;5071;52.360;13.134;2022-07-10T18:18:24;101472.41;;;18.99;45.59
10064;BME280;5071;52.360;13.134;2022-07-10T18:23:26;101470.16;;;18.87;45.01
10064;BME280;5071;52.360;13.134;2022-07-10T18:28:28;101474.81;;;18.82;45.83
10064;BME280;5071;52.360;13.134;2022-07-10T18:33:32;101472.47;;;18.71;45.90
10064;BME280;5071;52.360;13.134;2022-07-10T18:38:54;101484.66;;;18.56;46.54
10064;BME280;5071;52.360;13.134;2022-07-10T18:43:56;101487.28;;;18.58;47.21
10064;BME280;5071;52.360;13.134;2022-07-10T18:48:59;101488.56;;;18.73;47.19
10064;BME280;5071;52.360;13.134;2022-07-10T18:54:01;101497.97;;;18.59;47.06
10064;BME280;5071;52.360;13.134;2022-07-10T18:59:04;101497.31;;;18.53;47.48
10064;BME280;5071;52.360;13.134;2022-07-10T19:04:07;101494.25;;;18.37;47.68
10064;BME280;5071;52.360;13.134;2022-07-10T19:09:09;101503.72;;;18.20;47.97
10064;BME280;5071;52.360;13.134;2022-07-10T19:14:17;101516.63;;;18.09;48.13
10064;BME280;5071;52.360;13.134;2022-07-10T19:19:20;101518.97;;;17.92;49.07
10064;BME280;5071;52.360;13.134;2022-07-10T19:24:22;101521.13;;;17.77;48.93
10064;BME280;5071;52.360;13.134;2022-07-10T19:29:24;101519.47;;;17.73;49.09
10064;BME280;5071;52.360;13.134;2022-07-10T19:34:27;101523.22;;;17.67;49.41
10064;BME280;5071;52.360;13.134;2022-07-10T19:39:29;101528.00;;;17.58;49.49
10064;BME280;5071;52.360;13.134;2022-07-10T19:44:31;101525.94;;;17.36;50.94
10064;BME280;5071;52.360;13.134;2022-07-10T19:49:35;101539.72;;;17.22;51.40
10064;BME280;5071;52.360;13.134;2022-07-10T19:54:37;101542.59;;;17.15;51.89
10064;BME280;5071;52.360;13.134;2022-07-10T19:59:38;101545.91;;;16.92;52.09
10064;BME280;5071;52.360;13.134;2022-07-10T20:04:41;101549.78;;;16.78;52.72
10064;BME280;5071;52.360;13.134;2022-07-10T20:09:43;101550.81;;;16.73;52.89
10064;BME280;5071;52.360;13.134;2022-07-10T20:14:45;101562.00;;;16.54;53.71
10064;BME280;5071;52.360;13.134;2022-07-10T20:19:48;101556.09;;;16.38;53.84
10064;BME280;5071;52.360;13.134;2022-07-10T20:24:50;101567.78;;;16.36;54.30
10064;BME280;5071;52.360;13.134;2022-07-10T20:29:52;101562.78;;;16.20;54.56
10064;BME280;5071;52.360;13.134;2022-07-10T20:34:55;101561.41;;;16.01;55.09
10064;BME280;5071;52.360;13.134;2022-07-10T20:39:57;101561.66;;;15.90;55.88
10064;BME280;5071;52.360;13.134;2022-07-10T20:44:59;101569.28;;;15.65;56.81
10064;BME280;5071;52.360;13.134;2022-07-10T20:50:04;101569.28;;;15.65;57.11
10064;BME280;5071;52.360;13.134;2022-07-10T20:55:07;101573.06;;;15.54;57.43
10064;BME280;5071;52.360;13.134;2022-07-10T21:00:10;101573.13;;;15.50;57.38
10064;BME280;5071;52.360;13.134;2022-07-10T21:05:17;101574.09;;;15.46;57.60
10064;BME280;5071;52.360;13.134;2022-07-10T21:10:20;101570.59;;;15.42;57.48
10064;BME280;5071;52.360;13.134;2022-07-10T21:15:22;101572.38;;;15.43;57.74
10064;BME280;5071;52.360;13.134;2022-07-10T21:20:25;101584.31;;;15.24;58.54
10064;BME280;5071;52.360;13.134;2022-07-10T21:25:27;101587.94;;;15.21;58.57
10064;BME280;5071;52.360;13.134;2022-07-10T21:30:29;101599.13;;;14.92;59.72
10064;BME280;5071;52.360;13.134;2022-07-10T21:35:32;101593.19;;;14.74;60.10
10064;BME280;5071;52.360;13.134;2022-07-10T21:40:34;101590.00;;;14.49;61.05
10064;BME280;5071;52.360;13.134;2022-07-10T21:45:36;101598.88;;;14.51;61.38
10064;BME280;5071;52.360;13.134;2022-07-10T21:50:39;101599.63;;;14.61;60.66
10064;BME280;5071;52.360;13.134;2022-07-10T21:55:41;101599.72;;;14.53;60.94
10064;BME280;5071;52.360;13.134;2022-07-10T22:00:43;101603.47;;;14.42;61.55
10064;BME280;5071;52.360;13.134;2022-07-10T22:05:46;101607.19;;;14.28;63.05
10064;BME280;5071;52.360;13.134;2022-07-10T22:10:48;101606.25;;;14.32;62.38
10064;BME280;5071;52.360;13.134;2022-07-10T22:15:50;101603.72;;;14.23;62.49
10064;BME280;5071;52.360;13.134;2022-07-10T22:20:53;101603.69;;;14.25;62.60
10064;BME280;5071;52.360;13.134;2022-07-10T22:25:55;101602.81;;;14.23;62.92
10064;BME280;5071;52.360;13.134;2022-07-10T22:30:56;101603.03;;;14.07;63.55
10064;BME280;5071;52.360;13.134;2022-07-10T22:36:00;101604.81;;;14.07;63.56
10064;BME280;5071;52.360;13.134;2022-07-10T22:41:02;101611.19;;;13.96;63.89
10064;BME280;5071;52.360;13.134;2022-07-10T22:46:04;101598.66;;;14.02;63.93
10064;BME280;5071;52.360;13.134;2022-07-10T22:51:07;101596.94;;;13.97;64.40
10064;BME280;5071;52.360;13.134;2022-07-10T22:56:10;101606.41;;;14.22;63.58
10064;BME280;5071;52.360;13.134;2022-07-10T23:01:12;101601.84;;;14.28;63.48
10064;BME280;5071;52.360;13.134;2022-07-10T23:06:15;101597.34;;;14.33;63.37
10064;BME280;5071;52.360;13.134;2022-07-10T23:11:17;101601.94;;;14.22;63.74
10064;BME280;5071;52.360;13.134;2022-07-10T23:16:19;101593.09;;;14.17;63.78
10064;BME280;5071;52.360;13.134;2022-07-10T23:21:23;101592.53;;;13.95;64.68
10064;BME280;5071;52.360;13.134;2022-07-10T23:26:25;101597.88;;;13.93;65.03
10064;BME280;5071;52.360;13.134;2022-07-10T23:31:27;101607.63;;;13.94;64.76
10064;BME280;5071;52.360;13.134;2022-07-10T23:36:30;101591.81;;;13.79;65.61
10064;BME280;5071;52.360;13.134;2022-07-10T23:41:32;101587.41;;;13.75;65.78
10064;BME280;5071;52.360;13.134;2022-07-10T23:46:34;101588.47;;;13.63;66.34
10064;BME280;5071;52.360;13.134;2022-07-10T23:51:38;101581.50;;;13.48;66.91
10064;BME280;5071;52.360;13.134;2022-07-10T23:56:40;101586.75;;;13.54;66.42
